createdAt,value
2023-03-14T00:00:46.446Z,48.30
2023-03-14T00:03:24.287Z,48.16
2023-03-14T00:05:54.451Z,48.16
2023-03-14T00:08:25.742Z,48.38
2023-03-14T00:10:56.351Z,48.49
2023-03-14T00:13:26.745Z,48.61
2023-03-14T00:15:56.957Z,48.62
2023-03-14T00:18:27.109Z,48.77
2023-03-14T00:21:01.133Z,48.67
2023-03-14T00:23:32.777Z,48.73
2023-03-14T00:26:04.709Z,48.66
2023-03-14T00:28:35.159Z,48.83
2023-03-14T00:31:07.124Z,48.82
2023-03-14T00:33:37.242Z,48.83
2023-03-14T00:36:11.180Z,48.74
2023-03-14T00:38:42.479Z,48.82
2023-03-14T00:41:14.334Z,48.78
2023-03-14T00:43:44.716Z,48.82
2023-03-14T00:46:15.430Z,48.76
2023-03-14T00:48:46.945Z,48.75
2023-03-14T00:51:17.504Z,48.79
2023-03-14T00:53:48.919Z,48.58
2023-03-14T00:56:19.228Z,48.69
2023-03-14T00:58:49.388Z,48.68
2023-03-14T01:01:20.901Z,48.58
2023-03-14T01:03:53.858Z,48.61
2023-03-14T01:06:25.997Z,48.60
2023-03-14T01:08:57.145Z,48.58
2023-03-14T01:11:29.440Z,48.61
2023-03-14T01:13:59.570Z,48.73
2023-03-14T01:16:31.112Z,48.81
2023-03-14T01:19:01.376Z,48.89
2023-03-14T01:21:33.424Z,48.89
2023-03-14T01:24:05.441Z,48.89
2023-03-14T01:26:36.486Z,48.96
2023-03-14T01:29:07.662Z,48.96
2023-03-14T01:31:38.224Z,49.09
2023-03-14T01:34:08.993Z,49.08
2023-03-14T01:36:39.458Z,49.01
2023-03-14T01:39:10.609Z,49.06
2023-03-14T01:41:41.332Z,49.09
2023-03-14T01:44:14.173Z,49.09
2023-03-14T01:46:45.204Z,49.13
2023-03-14T01:49:24.593Z,49.00
2023-03-14T01:51:57.550Z,49.07
2023-03-14T01:54:30.556Z,49.16
2023-03-14T01:57:07.181Z,49.17
2023-03-14T01:59:38.128Z,49.03
2023-03-14T02:02:09.721Z,49.08
2023-03-14T02:04:41.293Z,49.21
2023-03-14T02:07:16.783Z,49.29
2023-03-14T02:09:47.466Z,49.38
2023-03-14T02:12:18.699Z,49.51
2023-03-14T02:14:49.954Z,49.58
2023-03-14T02:17:20.822Z,49.84
2023-03-14T02:20:00.040Z,49.96
2023-03-14T02:22:30.353Z,50.18
2023-03-14T02:25:08.542Z,50.45
2023-03-14T02:27:38.879Z,50.58
2023-03-14T02:30:13.068Z,50.55
2023-03-14T02:32:46.851Z,50.66
2023-03-14T02:35:19.913Z,50.81
2023-03-14T02:37:53.670Z,50.85
2023-03-14T02:40:23.818Z,50.58
2023-03-14T02:42:54.014Z,50.68
2023-03-14T02:45:39.895Z,50.57
2023-03-14T02:48:13.708Z,50.55
2023-03-14T02:50:44.811Z,50.45
2023-03-14T02:53:18.492Z,50.39
2023-03-14T02:55:50.194Z,50.24
2023-03-14T02:58:21.692Z,50.31
2023-03-14T03:00:51.952Z,50.38
2023-03-14T03:03:22.334Z,50.41
2023-03-14T03:05:52.899Z,50.41
2023-03-14T03:08:25.417Z,50.64
2023-03-14T03:10:56.130Z,50.76
2023-03-14T03:13:27.750Z,50.97
2023-03-14T03:15:59.247Z,51.02
2023-03-14T03:18:29.767Z,51.07
2023-03-14T03:21:03.758Z,51.13
2023-03-14T03:23:34.278Z,51.18
2023-03-14T03:26:04.839Z,51.14
2023-03-14T03:28:35.402Z,51.16
2023-03-14T03:31:10.875Z,51.14
2023-03-14T03:33:41.271Z,51.13
2023-03-14T03:36:13.939Z,51.09
2023-03-14T03:38:44.209Z,51.22
2023-03-14T03:41:14.485Z,51.23
2023-03-14T03:43:44.848Z,51.21
2023-03-14T03:46:15.459Z,51.14
2023-03-14T03:48:45.849Z,51.36
2023-03-14T03:51:16.920Z,51.22
2023-03-14T03:53:47.072Z,51.05
2023-03-14T03:56:17.295Z,50.98
2023-03-14T03:58:47.531Z,50.96
2023-03-14T04:01:17.786Z,50.86
2023-03-14T04:03:48.337Z,50.47
2023-03-14T04:06:19.393Z,50.45
2023-03-14T04:08:49.898Z,50.26
2023-03-14T04:11:20.177Z,50.14
2023-03-14T04:13:51.173Z,49.84
2023-03-14T04:16:23.791Z,49.61
2023-03-14T04:18:54.775Z,49.74
2023-03-14T04:21:25.580Z,49.48
2023-03-14T04:23:56.118Z,49.19
2023-03-14T04:26:26.937Z,48.78
2023-03-14T04:28:56.995Z,48.50
2023-03-14T04:31:27.275Z,48.08
2023-03-14T04:33:57.381Z,47.89
2023-03-14T04:36:27.804Z,47.75
2023-03-14T04:38:57.894Z,47.66
2023-03-14T04:41:29.246Z,47.23
2023-03-14T04:44:00.370Z,46.86
2023-03-14T04:46:30.937Z,46.59
2023-03-14T04:49:01.035Z,46.49
2023-03-14T04:51:31.345Z,46.09
2023-03-14T04:54:01.517Z,45.99
2023-03-14T04:56:31.795Z,45.86
2023-03-14T04:59:02.419Z,45.54
2023-03-14T05:01:32.709Z,45.20
2023-03-14T05:04:03.313Z,44.34
2023-03-14T05:06:33.856Z,43.41
2023-03-14T05:09:05.714Z,42.62
2023-03-14T05:11:35.915Z,41.54
2023-03-14T05:14:06.208Z,40.53
2023-03-14T05:16:36.761Z,39.31
2023-03-14T05:19:08.157Z,38.12
2023-03-14T05:21:38.616Z,35.84
2023-03-14T05:24:09.206Z,32.90
2023-03-14T05:26:39.855Z,31.87
2023-03-14T05:29:10.059Z,30.33
2023-03-14T05:31:40.568Z,29.03
2023-03-14T05:34:11.019Z,28.24
2023-03-14T05:36:41.972Z,25.89
2023-03-14T05:39:12.293Z,25.91
2023-03-14T05:41:42.603Z,24.35
2023-03-14T05:44:12.707Z,23.04
2023-03-14T05:46:43.236Z,21.52
2023-03-14T05:49:13.982Z,20.23
2023-03-14T05:51:44.613Z,19.24
2023-03-14T05:54:15.477Z,19.74
2023-03-14T05:56:45.705Z,18.76
2023-03-14T05:59:15.950Z,18.92
2023-03-14T06:01:46.310Z,19.20
2023-03-14T06:04:16.549Z,18.84
2023-03-14T06:06:46.780Z,18.11
2023-03-14T06:09:16.964Z,17.33
2023-03-14T06:11:48.128Z,16.76
2023-03-14T06:14:18.480Z,16.33
2023-03-14T06:16:49.767Z,15.35
2023-03-14T06:19:20.661Z,15.46
2023-03-14T06:21:50.902Z,15.26
2023-03-14T06:24:21.483Z,14.77
2023-03-14T06:26:52.155Z,14.83
2023-03-14T06:29:23.503Z,14.44
2023-03-14T06:31:53.851Z,13.94
2023-03-14T06:34:24.245Z,13.55
2023-03-14T06:36:54.881Z,13.39
2023-03-14T06:39:25.182Z,13.17
2023-03-14T06:41:55.364Z,13.01
2023-03-14T06:44:25.835Z,12.97
2023-03-14T06:46:56.608Z,13.08
2023-03-14T06:49:27.462Z,13.10
2023-03-14T06:51:57.835Z,13.31
2023-03-14T06:54:28.214Z,13.29
2023-03-14T06:56:58.610Z,13.07
2023-03-14T06:59:28.961Z,13.51
2023-03-14T07:01:59.576Z,13.95
2023-03-14T07:04:29.780Z,14.24
2023-03-14T07:06:59.844Z,14.87
2023-03-14T07:09:30.144Z,15.49
2023-03-14T07:12:00.771Z,16.33
2023-03-14T07:14:31.264Z,16.66
2023-03-14T07:17:01.621Z,17.31
2023-03-14T07:19:31.985Z,17.94
2023-03-14T07:22:02.244Z,17.73
2023-03-14T07:24:32.757Z,17.69
2023-03-14T07:27:03.047Z,17.74
2023-03-14T07:29:33.312Z,17.78
2023-03-14T07:32:03.915Z,17.95
2023-03-14T07:34:34.267Z,17.41
2023-03-14T07:37:05.709Z,17.61
2023-03-14T07:39:36.018Z,17.67
2023-03-14T07:42:06.261Z,17.43
2023-03-14T07:44:36.645Z,17.39
2023-03-14T07:47:06.914Z,17.94
2023-03-14T07:49:37.458Z,18.17
2023-03-14T07:52:07.887Z,18.75
2023-03-14T07:54:38.128Z,19.31
2023-03-14T07:57:08.411Z,19.67
2023-03-14T07:59:38.895Z,19.62
2023-03-14T08:02:12.585Z,19.54
2023-03-14T08:04:43.378Z,19.39
2023-03-14T08:07:13.647Z,19.87
2023-03-14T08:09:43.959Z,20.36
2023-03-14T08:12:14.506Z,20.92
2023-03-14T08:14:44.743Z,21.63
2023-03-14T08:17:15.292Z,22.48
2023-03-14T08:19:45.585Z,22.95
2023-03-14T08:22:17.782Z,23.49
2023-03-14T08:24:49.558Z,24.03
2023-03-14T08:27:19.897Z,24.45
2023-03-14T08:29:49.999Z,24.74
2023-03-14T08:32:20.863Z,25.12
2023-03-14T08:34:51.370Z,25.65
2023-03-14T08:37:26.598Z,25.86
2023-03-14T08:39:57.773Z,26.38
2023-03-14T08:42:28.254Z,26.91
2023-03-14T08:44:58.814Z,27.27
2023-03-14T08:47:29.116Z,27.62
2023-03-14T08:49:59.341Z,27.75
2023-03-14T08:52:31.851Z,27.80
2023-03-14T08:55:02.491Z,27.73
2023-03-14T08:57:33.289Z,28.17
2023-03-14T09:00:06.146Z,28.56
2023-03-14T09:02:36.366Z,28.84
2023-03-14T09:05:08.056Z,29.40
2023-03-14T09:07:38.391Z,29.61
2023-03-14T09:10:11.269Z,29.68
2023-03-14T09:12:41.673Z,29.73
2023-03-14T09:15:13.142Z,29.74
2023-03-14T09:17:45.372Z,29.88
2023-03-14T09:20:16.112Z,30.09
2023-03-14T09:22:46.430Z,29.99
2023-03-14T09:25:17.045Z,30.10
2023-03-14T09:27:47.346Z,29.93
2023-03-14T09:30:18.216Z,30.29
2023-03-14T09:32:48.351Z,30.10
2023-03-14T09:35:19.483Z,30.46
2023-03-14T09:37:50.770Z,30.70
2023-03-14T09:40:22.347Z,30.70
2023-03-14T09:42:55.047Z,31.00
2023-03-14T09:45:30.349Z,30.93
2023-03-14T09:48:01.278Z,30.81
2023-03-14T09:50:34.741Z,30.74
2023-03-14T09:53:08.600Z,30.49
2023-03-14T09:55:39.530Z,30.49
2023-03-14T09:58:13.204Z,30.80
2023-03-14T10:00:44.050Z,30.95
2023-03-14T10:03:34.479Z,31.14
2023-03-14T10:06:05.314Z,31.07
2023-03-14T10:08:35.619Z,31.49
2023-03-14T10:11:06.602Z,31.62
2023-03-14T10:13:37.535Z,31.90
2023-03-14T10:16:09.453Z,31.82
2023-03-14T10:18:39.897Z,32.00
2023-03-14T10:21:22.721Z,32.26
2023-03-14T10:23:53.200Z,32.85
2023-03-14T10:26:28.451Z,33.05
2023-03-14T10:29:05.219Z,33.28
2023-03-14T10:34:24.764Z,33.22
2023-03-14T10:37:00.089Z,33.32
2023-03-14T10:39:43.112Z,33.48
2023-03-14T10:42:21.304Z,33.48
2023-03-14T10:44:57.072Z,33.54
2023-03-14T10:47:29.594Z,33.73
2023-03-14T10:50:00.454Z,33.98
2023-03-14T10:53:01.485Z,34.03
2023-03-14T10:55:22.707Z,34.16
2023-03-14T10:57:53.128Z,34.01
2023-03-14T11:00:25.321Z,34.07
2023-03-14T11:03:08.134Z,34.21
2023-03-14T11:05:43.655Z,34.40
2023-03-14T11:08:19.673Z,34.61
2023-03-14T11:10:52.359Z,34.68
2023-03-14T11:13:27.698Z,34.85
2023-03-14T11:16:06.299Z,35.16
2023-03-14T11:19:00.907Z,35.34
2023-03-14T11:21:34.815Z,35.57
2023-03-14T11:24:15.946Z,35.52
2023-03-14T11:26:50.309Z,35.95
2023-03-14T11:29:24.104Z,36.21
2023-03-14T11:31:57.600Z,36.57
2023-03-14T11:34:34.104Z,36.62
2023-03-14T11:37:08.450Z,36.66
2023-03-14T11:39:42.768Z,36.69
2023-03-14T11:42:15.683Z,36.68
2023-03-14T11:44:51.803Z,36.98
2023-03-14T11:47:25.942Z,37.15
2023-03-14T11:50:00.859Z,37.27
2023-03-14T11:52:33.935Z,37.34
2023-03-14T11:55:12.909Z,37.38
2023-03-14T11:57:46.254Z,37.53
2023-03-14T12:00:23.744Z,37.26
2023-03-14T12:03:01.365Z,37.20
2023-03-14T12:05:50.000Z,37.11
2023-03-14T12:08:47.944Z,37.03
2023-03-14T12:11:32.243Z,37.62
2023-03-14T12:14:03.289Z,37.85
2023-03-14T12:16:41.108Z,37.41
2023-03-14T12:19:33.836Z,37.43
2023-03-14T12:22:27.951Z,37.62
2023-03-14T12:25:02.649Z,37.65
2023-03-14T12:27:50.902Z,37.77
2023-03-14T12:30:29.426Z,37.80
2023-03-14T12:33:23.692Z,37.90
2023-03-14T12:35:58.695Z,37.85
2023-03-14T12:38:39.018Z,37.91
2023-03-14T12:41:16.860Z,38.13
2023-03-14T12:43:47.141Z,38.18
2023-03-14T12:46:26.794Z,38.42
2023-03-14T12:49:08.136Z,38.33
2023-03-14T12:51:39.765Z,38.48
2023-03-14T12:54:33.412Z,38.57
2023-03-14T12:57:13.038Z,38.87
2023-03-14T12:59:48.745Z,38.95
2023-03-14T13:02:25.908Z,39.01
2023-03-14T13:05:04.617Z,39.18
2023-03-14T13:07:56.267Z,39.07
2023-03-14T13:10:27.145Z,39.22
2023-03-14T13:12:59.319Z,39.22
2023-03-14T13:15:34.911Z,39.33
2023-03-14T13:18:10.740Z,39.41
2023-03-14T13:20:45.658Z,39.41
2023-03-14T13:23:26.376Z,39.51
2023-03-14T13:25:57.025Z,39.51
2023-03-14T13:28:27.269Z,39.50
2023-03-14T13:31:00.795Z,39.58
2023-03-14T13:33:32.201Z,39.76
2023-03-14T13:36:04.838Z,39.93
2023-03-14T13:38:37.177Z,40.16
2023-03-14T13:41:08.912Z,40.34
2023-03-14T13:43:42.002Z,40.62
2023-03-14T13:46:16.963Z,40.67
2023-03-14T13:48:49.358Z,40.66
2023-03-14T13:51:21.590Z,41.08
2023-03-14T13:53:52.977Z,41.21
2023-03-14T13:56:25.154Z,41.40
2023-03-14T13:58:55.431Z,41.61
2023-03-14T14:01:27.935Z,41.71
2023-03-14T14:03:59.717Z,41.94
2023-03-14T14:06:33.334Z,41.85
2023-03-14T14:09:11.136Z,42.14
2023-03-14T14:11:56.498Z,42.37
2023-03-14T14:14:38.861Z,42.61
2023-03-14T14:17:13.118Z,43.20
2023-03-14T14:19:44.091Z,43.21
2023-03-14T14:22:14.936Z,43.91
2023-03-14T14:24:45.236Z,43.99
2023-03-14T14:27:17.618Z,44.61
2023-03-14T14:30:00.537Z,44.75
2023-03-14T14:32:37.417Z,45.13
2023-03-14T14:35:09.182Z,45.13
2023-03-14T14:37:44.969Z,45.62
2023-03-14T14:40:20.992Z,45.68
2023-03-14T14:42:55.183Z,45.88
2023-03-14T14:45:26.890Z,45.98
2023-03-14T14:47:58.914Z,46.22
2023-03-14T14:50:34.361Z,46.14
2023-03-14T14:53:22.042Z,46.29
2023-03-14T14:55:54.405Z,46.35
2023-03-14T14:58:28.549Z,46.37
2023-03-14T15:01:06.493Z,46.65
2023-03-14T15:03:37.464Z,46.71
2023-03-14T15:06:09.742Z,46.73
2023-03-14T15:08:40.351Z,47.10
2023-03-14T15:11:19.063Z,47.03
2023-03-14T15:13:49.991Z,47.09
2023-03-14T15:16:23.652Z,47.29
2023-03-14T15:18:57.199Z,47.32
2023-03-14T15:21:29.134Z,47.38
2023-03-14T15:24:01.194Z,47.38
2023-03-14T15:26:33.673Z,47.30
2023-03-14T15:29:08.821Z,47.55
2023-03-14T15:31:39.438Z,47.49
2023-03-14T15:34:11.122Z,47.49
2023-03-14T15:36:41.625Z,47.45
2023-03-14T15:39:13.725Z,47.36
2023-03-14T15:41:44.375Z,47.26
2023-03-14T15:44:18.386Z,47.30
2023-03-14T15:46:51.120Z,47.45
2023-03-14T15:49:21.466Z,47.34
2023-03-14T15:51:52.296Z,47.22
2023-03-14T15:54:28.937Z,47.32
2023-03-14T15:57:00.423Z,47.21
2023-03-14T15:59:31.183Z,47.19
2023-03-14T16:02:02.946Z,47.16
2023-03-14T16:04:34.716Z,47.29
2023-03-14T16:07:05.486Z,47.33
2023-03-14T16:09:35.920Z,47.46
2023-03-14T16:12:08.180Z,47.50
2023-03-14T16:14:45.887Z,47.55
2023-03-14T16:17:16.670Z,47.59
2023-03-14T16:19:49.040Z,47.66
2023-03-14T16:22:20.250Z,47.69
2023-03-14T16:24:50.902Z,47.72
2023-03-14T16:27:21.515Z,47.72
2023-03-14T16:29:52.834Z,48.04
2023-03-14T16:32:23.127Z,48.03
2023-03-14T16:34:54.047Z,48.02
2023-03-14T16:37:27.238Z,48.03
2023-03-14T16:40:11.693Z,47.87
2023-03-14T16:43:05.292Z,47.98
2023-03-14T16:45:34.698Z,47.86
2023-03-14T16:48:06.055Z,48.05
2023-03-14T16:50:36.929Z,47.94
2023-03-14T16:53:10.839Z,47.91
2023-03-14T16:55:43.976Z,48.16
2023-03-14T16:58:14.273Z,47.97
2023-03-14T17:00:46.342Z,48.20
2023-03-14T17:03:17.274Z,48.17
2023-03-14T17:05:48.870Z,48.17
2023-03-14T17:08:21.233Z,48.30
2023-03-14T17:10:53.989Z,48.23
2023-03-14T17:13:25.833Z,48.16
2023-03-14T17:15:57.885Z,48.27
2023-03-14T17:18:29.469Z,48.13
2023-03-14T17:21:00.543Z,48.18
2023-03-14T17:23:32.716Z,48.34
2023-03-14T17:26:03.185Z,48.33
2023-03-14T17:28:33.650Z,48.39
2023-03-14T17:31:08.774Z,48.61
2023-03-14T17:33:39.125Z,48.79
2023-03-14T17:36:11.057Z,48.74
2023-03-14T17:38:41.414Z,48.75
2023-03-14T17:41:12.941Z,48.91
2023-03-14T17:43:43.630Z,48.94
2023-03-14T17:46:16.625Z,48.89
2023-03-14T17:48:48.252Z,48.96
2023-03-14T17:51:18.845Z,48.82
2023-03-14T17:53:49.613Z,48.91
2023-03-14T17:56:19.919Z,48.88
2023-03-14T17:58:50.613Z,49.06
2023-03-14T18:01:22.356Z,49.06
2023-03-14T18:03:56.322Z,49.30
2023-03-14T18:06:30.121Z,49.27
2023-03-14T18:09:01.130Z,49.43
2023-03-14T18:11:32.597Z,49.55
2023-03-14T18:14:07.745Z,49.48
2023-03-14T18:16:39.164Z,49.63
2023-03-14T18:19:10.604Z,49.65
2023-03-14T18:21:41.203Z,49.87
2023-03-14T18:24:13.599Z,49.75
2023-03-14T18:26:44.601Z,49.78
2023-03-14T18:29:16.227Z,49.82
2023-03-14T18:31:47.507Z,49.63
2023-03-14T18:34:17.873Z,49.61
2023-03-14T18:36:48.675Z,49.84
2023-03-14T18:39:19.447Z,49.81
2023-03-14T18:41:50.015Z,49.86
2023-03-14T18:44:21.145Z,49.92
2023-03-14T18:46:52.341Z,49.90
2023-03-14T18:49:22.804Z,49.92
2023-03-14T18:51:53.149Z,49.93
2023-03-14T18:54:23.551Z,49.96
2023-03-14T18:56:54.154Z,49.98
2023-03-14T18:59:24.448Z,50.02
2023-03-14T19:01:54.848Z,49.97
2023-03-14T19:04:25.262Z,49.82
2023-03-14T19:06:58.444Z,49.80
2023-03-14T19:09:29.281Z,49.78
2023-03-14T19:11:59.555Z,49.78
2023-03-14T19:14:29.961Z,49.80
2023-03-14T19:17:00.706Z,49.98
2023-03-14T19:19:31.658Z,50.26
2023-03-14T19:22:02.343Z,50.28
2023-03-14T19:24:34.181Z,50.10
2023-03-14T19:27:04.939Z,50.22
2023-03-14T19:29:39.129Z,50.20
2023-03-14T19:32:09.657Z,50.37
2023-03-14T19:34:40.106Z,50.26
2023-03-14T19:37:10.260Z,50.14
2023-03-14T19:39:41.039Z,50.16
2023-03-14T19:42:11.551Z,50.22
2023-03-14T19:44:42.247Z,50.20
2023-03-14T19:47:12.471Z,50.30
2023-03-14T19:49:43.095Z,50.18
2023-03-14T19:52:13.958Z,50.16
2023-03-14T19:54:44.386Z,50.49
2023-03-14T19:57:14.760Z,50.56
2023-03-14T19:59:45.659Z,49.99
2023-03-14T20:02:16.426Z,49.81
2023-03-14T20:04:46.733Z,49.77
2023-03-14T20:07:17.430Z,49.91
2023-03-14T20:09:48.083Z,49.88
2023-03-14T20:12:18.264Z,49.83
2023-03-14T20:14:48.448Z,49.88
2023-03-14T20:17:18.685Z,49.73
2023-03-14T20:19:49.605Z,49.77
2023-03-14T20:22:20.181Z,49.68
2023-03-14T20:24:52.114Z,49.61
2023-03-14T20:27:22.477Z,49.55
2023-03-14T20:29:57.676Z,49.41
2023-03-14T20:32:28.185Z,49.41
2023-03-14T20:34:58.619Z,49.39
2023-03-14T20:37:29.041Z,49.45
2023-03-14T20:39:59.468Z,49.55
2023-03-14T20:42:30.020Z,49.31
2023-03-14T20:45:00.285Z,49.32
2023-03-14T20:47:30.601Z,49.21
2023-03-14T20:50:01.355Z,49.25
2023-03-14T20:52:31.803Z,49.28
2023-03-14T20:55:02.374Z,49.16
2023-03-14T20:57:32.466Z,49.16
2023-03-14T21:00:06.964Z,49.17
2023-03-14T21:05:26.012Z,49.06
2023-03-14T21:07:56.243Z,48.76
2023-03-14T21:10:26.436Z,48.70
2023-03-14T21:12:56.613Z,48.82
2023-03-14T21:15:28.504Z,48.59
2023-03-14T21:18:04.800Z,48.76
2023-03-14T21:20:36.501Z,48.76
2023-03-14T21:23:07.369Z,48.79
2023-03-14T21:25:38.242Z,48.95
2023-03-14T21:28:08.435Z,48.91
2023-03-14T21:30:38.967Z,48.89
2023-03-14T21:33:09.238Z,48.86
2023-03-14T21:35:39.538Z,48.67
2023-03-14T21:38:09.732Z,48.80
2023-03-14T21:40:39.872Z,48.85
2023-03-14T21:43:10.043Z,48.78
2023-03-14T21:45:40.810Z,48.70
2023-03-14T21:48:11.134Z,48.70
2023-03-14T21:50:41.367Z,48.78
2023-03-14T21:53:11.914Z,48.72
2023-03-14T21:55:43.777Z,48.69
2023-03-14T21:58:14.957Z,48.49
2023-03-14T22:00:48.852Z,48.70
2023-03-14T22:03:19.643Z,48.59
2023-03-14T22:05:50.058Z,48.65
2023-03-14T22:08:22.446Z,48.64
2023-03-14T22:10:53.994Z,48.57
2023-03-14T22:13:25.042Z,48.67
2023-03-14T22:15:55.199Z,48.69
2023-03-14T22:18:25.814Z,48.86
2023-03-14T22:20:56.136Z,48.72
2023-03-14T22:23:26.345Z,48.65
2023-03-14T22:25:56.449Z,48.79
2023-03-14T22:28:26.705Z,48.89
2023-03-14T22:30:56.621Z,48.93
2023-03-14T22:33:27.013Z,49.14
2023-03-14T22:35:57.103Z,49.13
2023-03-14T22:38:27.666Z,49.27
2023-03-14T22:41:02.660Z,49.38
2023-03-14T22:43:32.879Z,49.52
2023-03-14T22:46:03.620Z,49.66
2023-03-14T22:48:34.055Z,49.76
2023-03-14T22:51:08.854Z,49.69
2023-03-14T22:53:39.406Z,49.90
2023-03-14T22:56:09.952Z,50.06
2023-03-14T22:58:40.378Z,50.24
2023-03-14T23:01:10.772Z,50.41
2023-03-14T23:03:40.948Z,50.56
2023-03-14T23:06:11.387Z,50.84
2023-03-14T23:08:41.823Z,50.83
2023-03-14T23:11:17.004Z,50.48
2023-03-14T23:13:49.500Z,50.14
2023-03-14T23:16:25.194Z,50.14
2023-03-14T23:19:00.903Z,49.98
2023-03-14T23:21:31.288Z,50.08
2023-03-14T23:24:05.344Z,49.85
2023-03-14T23:26:35.897Z,49.91
2023-03-14T23:29:06.179Z,50.10
2023-03-14T23:31:36.346Z,50.01
2023-03-14T23:34:06.463Z,50.10
2023-03-14T23:36:37.209Z,49.93
2023-03-14T23:39:08.184Z,49.90
2023-03-14T23:41:38.811Z,50.09
2023-03-14T23:44:12.786Z,49.80
2023-03-14T23:46:42.882Z,49.84
2023-03-14T23:49:13.246Z,49.91
2023-03-14T23:51:44.077Z,49.79
2023-03-14T23:54:14.844Z,49.78
2023-03-14T23:56:45.025Z,49.67
2023-03-14T23:59:15.056Z,49.71
